sensor_id;sensor_type;location;lat;lon;timestamp;pressure;altitude;pressure_sealevel;temperature;humidity
11345;BME280;5727;42.600;23.028;2023-04-02T00:00:13;92843.09;;;7.23;100.00
11345;BME280;5727;42.600;23.028;2023-04-02T00:02:54;92849.72;;;7.21;100.00
11345;BME280;5727;42.600;23.028;2023-04-02T00:05:31;92833.53;;;7.15;100.00
11345;BME280;5727;42.600;23.028;2023-04-02T00:08:28;92839.84;;;7.14;100.00
11345;BME280;5727;42.600;23.028;2023-04-02T00:11:03;92842.31;;;7.11;100.00
11345;BME280;5727;42.600;23.028;2023-04-02T00:13:33;92835.38;;;7.15;100.00
11345;BME280;5727;42.600;23.028;2023-04-02T00:16:01;92838.66;;;7.12;100.00
11345;BME280;5727;42.600;23.028;2023-04-02T00:18:29;92835.06;;;7.04;100.00
11345;BME280;5727;42.600;23.028;2023-04-02T00:21:06;92816.91;;;6.96;100.00
11345;BME280;5727;42.600;23.028;2023-04-02T00:23:37;92831.59;;;7.00;100.00
11345;BME280;5727;42.600;23.028;2023-04-02T00:26:12;92831.03;;;6.95;100.00
11345;BME280;5727;42.600;23.028;2023-04-02T00:28:47;92823.66;;;6.97;100.00
11345;BME280;5727;42.600;23.028;2023-04-02T00:31:16;92818.53;;;6.88;100.00
11345;BME280;5727;42.600;23.028;2023-04-02T00:33:44;92826.47;;;6.92;100.00
11345;BME280;5727;42.600;23.028;2023-04-02T00:36:11;92820.06;;;6.89;100.00
11345;BME280;5727;42.600;23.028;2023-04-02T00:38:39;92821.91;;;6.89;100.00
11345;BME280;5727;42.600;23.028;2023-04-02T00:41:14;92818.09;;;6.86;100.00
11345;BME280;5727;42.600;23.028;2023-04-02T00:43:43;92827.22;;;6.92;100.00
11345;BME280;5727;42.600;23.028;2023-04-02T00:46:14;92816.03;;;6.92;100.00
11345;BME280;5727;42.600;23.028;2023-04-02T00:48:44;92819.09;;;6.94;100.00
11345;BME280;5727;42.600;23.028;2023-04-02T00:51:18;92815.31;;;6.91;100.00
11345;BME280;5727;42.600;23.028;2023-04-02T00:53:48;92815.31;;;6.91;100.00
11345;BME280;5727;42.600;23.028;2023-04-02T00:56:20;92817.47;;;6.89;100.00
11345;BME280;5727;42.600;23.028;2023-04-02T00:58:51;92815.38;;;6.83;100.00
11345;BME280;5727;42.600;23.028;2023-04-02T01:01:21;92816.13;;;6.71;100.00
11345;BME280;5727;42.600;23.028;2023-04-02T01:03:54;92807.88;;;6.69;100.00
11345;BME280;5727;42.600;23.028;2023-04-02T01:06:27;92814.41;;;6.75;100.00
11345;BME280;5727;42.600;23.028;2023-04-02T01:09:20;92806.56;;;6.63;100.00
11345;BME280;5727;42.600;23.028;2023-04-02T01:12:13;92807.44;;;6.67;100.00
11345;BME280;5727;42.600;23.028;2023-04-02T01:14:52;92814.63;;;6.70;100.00
11345;BME280;5727;42.600;23.028;2023-04-02T01:17:31;92821.53;;;6.66;100.00
11345;BME280;5727;42.600;23.028;2023-04-02T01:23:03;92823.50;;;6.69;100.00
11345;BME280;5727;42.600;23.028;2023-04-02T01:25:42;92821.31;;;6.71;100.00
11345;BME280;5727;42.600;23.028;2023-04-02T01:28:16;92822.88;;;6.72;100.00
11345;BME280;5727;42.600;23.028;2023-04-02T01:30:49;92819.06;;;6.70;100.00
11345;BME280;5727;42.600;23.028;2023-04-02T01:36:08;92823.50;;;6.69;100.00
11345;BME280;5727;42.600;23.028;2023-04-02T01:38:41;92827.19;;;6.68;100.00
11345;BME280;5727;42.600;23.028;2023-04-02T01:41:17;92819.88;;;6.62;100.00
11345;BME280;5727;42.600;23.028;2023-04-02T01:43:50;92815.78;;;6.61;100.00
11345;BME280;5727;42.600;23.028;2023-04-02T01:46:27;92812.84;;;6.62;100.00
11345;BME280;5727;42.600;23.028;2023-04-02T01:48:56;92818.81;;;6.63;100.00
11345;BME280;5727;42.600;23.028;2023-04-02T01:51:27;92812.84;;;6.62;100.00
11345;BME280;5727;42.600;23.028;2023-04-02T01:53:58;92813.19;;;6.61;100.00
11345;BME280;5727;42.600;23.028;2023-04-02T01:56:26;92812.75;;;6.59;100.00
11345;BME280;5727;42.600;23.028;2023-04-02T01:58:55;92811.66;;;6.60;100.00
11345;BME280;5727;42.600;23.028;2023-04-02T02:01:26;92816.09;;;6.59;100.00
11345;BME280;5727;42.600;23.028;2023-04-02T02:03:54;92824.97;;;6.58;100.00
11345;BME280;5727;42.600;23.028;2023-04-02T02:06:22;92815.41;;;6.50;100.00
11345;BME280;5727;42.600;23.028;2023-04-02T02:08:53;92811.84;;;6.55;100.00
11345;BME280;5727;42.600;23.028;2023-04-02T02:11:23;92824.53;;;6.56;100.00
11345;BME280;5727;42.600;23.028;2023-04-02T02:13:54;92823.44;;;6.57;100.00
11345;BME280;5727;42.600;23.028;2023-04-02T02:16:21;92823.44;;;6.57;100.00
11345;BME280;5727;42.600;23.028;2023-04-02T02:18:51;92829.53;;;6.61;100.00
11345;BME280;5727;42.600;23.028;2023-04-02T02:21:30;92828.22;;;6.55;100.00
11345;BME280;5727;42.600;23.028;2023-04-02T02:24:03;92832.34;;;6.56;100.00
11345;BME280;5727;42.600;23.028;2023-04-02T02:26:32;92824.22;;;6.58;100.00
11345;BME280;5727;42.600;23.028;2023-04-02T02:29:02;92818.69;;;6.59;100.00
11345;BME280;5727;42.600;23.028;2023-04-02T02:31:33;92822.28;;;6.55;100.00
11345;BME280;5727;42.600;23.028;2023-04-02T02:34:05;92820.84;;;6.57;100.00
11345;BME280;5727;42.600;23.028;2023-04-02T02:36:37;92815.34;;;6.59;100.00
11345;BME280;5727;42.600;23.028;2023-04-02T02:39:13;92825.59;;;6.43;100.00
11345;BME280;5727;42.600;23.028;2023-04-02T02:41:44;92821.91;;;6.44;100.00
11345;BME280;5727;42.600;23.028;2023-04-02T02:44:16;92824.19;;;6.45;100.00
11345;BME280;5727;42.600;23.028;2023-04-02T02:46:45;92813.47;;;6.47;100.00
11345;BME280;5727;42.600;23.028;2023-04-02T02:49:18;92815.75;;;6.48;100.00
11345;BME280;5727;42.600;23.028;2023-04-02T02:51:52;92812.38;;;6.48;100.00
11345;BME280;5727;42.600;23.028;2023-04-02T02:54:21;92818.34;;;6.48;100.00
11345;BME280;5727;42.600;23.028;2023-04-02T02:56:51;92824.31;;;6.49;100.00
11345;BME280;5727;42.600;23.028;2023-04-02T02:59:20;92825.72;;;6.46;100.00
11345;BME280;5727;42.600;23.028;2023-04-02T03:01:47;92820.06;;;6.44;100.00
11345;BME280;5727;42.600;23.028;2023-04-02T03:04:20;92815.31;;;6.46;100.00
11345;BME280;5727;42.600;23.028;2023-04-02T03:06:49;92814.97;;;6.48;100.00
11345;BME280;5727;42.600;23.028;2023-04-02T03:09:21;92816.06;;;6.47;100.00
11345;BME280;5727;42.600;23.028;2023-04-02T03:11:58;92823.09;;;6.46;100.00
11345;BME280;5727;42.600;23.028;2023-04-02T03:14:30;92826.38;;;6.43;100.00
11345;BME280;5727;42.600;23.028;2023-04-02T03:17:03;92837.28;;;6.37;100.00
11345;BME280;5727;42.600;23.028;2023-04-02T03:19:37;92831.56;;;6.23;100.00
11345;BME280;5727;42.600;23.028;2023-04-02T03:22:12;92829.84;;;6.27;100.00
11345;BME280;5727;42.600;23.028;2023-04-02T03:24:45;92837.22;;;6.25;100.00
11345;BME280;5727;42.600;23.028;2023-04-02T03:27:17;92840.78;;;6.20;100.00
11345;BME280;5727;42.600;23.028;2023-04-02T03:29:57;92833.25;;;6.07;100.00
11345;BME280;5727;42.600;23.028;2023-04-02T03:32:28;92829.31;;;6.01;100.00
11345;BME280;5727;42.600;23.028;2023-04-02T03:35:02;92833.19;;;5.95;100.00
11345;BME280;5727;42.600;23.028;2023-04-02T03:37:37;92841.69;;;5.83;100.00
11345;BME280;5727;42.600;23.028;2023-04-02T03:40:08;92842.94;;;5.69;100.00
11345;BME280;5727;42.600;23.028;2023-04-02T03:42:39;92841.66;;;5.54;100.00
11345;BME280;5727;42.600;23.028;2023-04-02T03:45:11;92843.81;;;5.52;100.00
11345;BME280;5727;42.600;23.028;2023-04-02T03:47:44;92835.13;;;5.48;100.00
11345;BME280;5727;42.600;23.028;2023-04-02T03:50:17;92835.66;;;5.41;100.00
11345;BME280;5727;42.600;23.028;2023-04-02T03:52:47;92835.53;;;5.29;100.00
11345;BME280;5727;42.600;23.028;2023-04-02T03:55:17;92836.16;;;5.26;100.00
11345;BME280;5727;42.600;23.028;2023-04-02T03:57:51;92831.66;;;5.15;100.00
11345;BME280;5727;42.600;23.028;2023-04-02T04:00:24;92834.19;;;5.23;100.00
11345;BME280;5727;42.600;23.028;2023-04-02T04:02:55;92833.81;;;5.04;100.00
11345;BME280;5727;42.600;23.028;2023-04-02T04:05:28;92835.69;;;4.95;100.00
11345;BME280;5727;42.600;23.028;2023-04-02T04:07:59;92840.22;;;5.07;100.00
11345;BME280;5727;42.600;23.028;2023-04-02T04:10:28;92842.31;;;5.13;100.00
11345;BME280;5727;42.600;23.028;2023-04-02T04:13:01;92845.38;;;5.15;100.00
11345;BME280;5727;42.600;23.028;2023-04-02T04:15:31;92842.47;;;5.17;100.00
11345;BME280;5727;42.600;23.028;2023-04-02T04:18:04;92848.41;;;5.17;100.00
11345;BME280;5727;42.600;23.028;2023-04-02T04:20:41;92846.28;;;5.19;100.00
11345;BME280;5727;42.600;23.028;2023-04-02T04:23:16;92855.88;;;5.19;100.00
11345;BME280;5727;42.600;23.028;2023-04-02T04:25:44;92854.06;;;5.19;100.00
11345;BME280;5727;42.600;23.028;2023-04-02T04:28:21;92848.25;;;5.22;100.00
11345;BME280;5727;42.600;23.028;2023-04-02T04:30:55;92862.75;;;5.23;100.00
11345;BME280;5727;42.600;23.028;2023-04-02T04:33:26;92858.00;;;5.25;100.00
11345;BME280;5727;42.600;23.028;2023-04-02T04:36:01;92860.63;;;5.25;100.00
11345;BME280;5727;42.600;23.028;2023-04-02T04:38:30;92865.50;;;5.27;100.00
11345;BME280;5727;42.600;23.028;2023-04-02T04:41:02;92859.97;;;5.28;100.00
11345;BME280;5727;42.600;23.028;2023-04-02T04:43:37;92863.34;;;5.29;100.00
11345;BME280;5727;42.600;23.028;2023-04-02T04:46:10;92860.28;;;5.27;100.00
11345;BME280;5727;42.600;23.028;2023-04-02T04:48:46;92865.75;;;5.05;100.00
11345;BME280;5727;42.600;23.028;2023-04-02T04:51:19;92864.97;;;5.04;100.00
11345;BME280;5727;42.600;23.028;2023-04-02T04:53:49;92866.00;;;5.12;100.00
11345;BME280;5727;42.600;23.028;2023-04-02T04:56:18;92871.47;;;5.19;100.00
11345;BME280;5727;42.600;23.028;2023-04-02T04:58:49;92874.22;;;5.22;100.00
11345;BME280;5727;42.600;23.028;2023-04-02T05:01:22;92874.81;;;5.28;100.00
11345;BME280;5727;42.600;23.028;2023-04-02T05:03:55;92867.75;;;5.37;100.00
11345;BME280;5727;42.600;23.028;2023-04-02T05:06:34;92883.13;;;5.42;100.00
11345;BME280;5727;42.600;23.028;2023-04-02T05:09:08;92878.53;;;5.47;100.00
11345;BME280;5727;42.600;23.028;2023-04-02T05:11:41;92877.66;;;5.43;100.00
11345;BME280;5727;42.600;23.028;2023-04-02T05:14:17;92881.19;;;5.39;100.00
11345;BME280;5727;42.600;23.028;2023-04-02T05:16:50;92881.19;;;5.39;100.00
11345;BME280;5727;42.600;23.028;2023-04-02T05:19:22;92881.50;;;5.37;100.00
11345;BME280;5727;42.600;23.028;2023-04-02T05:21:54;92887.63;;;5.33;100.00
11345;BME280;5727;42.600;23.028;2023-04-02T05:24:41;92889.44;;;5.32;100.00
11345;BME280;5727;42.600;23.028;2023-04-02T05:27:20;92897.34;;;5.44;100.00
11345;BME280;5727;42.600;23.028;2023-04-02T05:29:52;92900.03;;;5.56;100.00
11345;BME280;5727;42.600;23.028;2023-04-02T05:32:25;92899.69;;;5.67;100.00
11345;BME280;5727;42.600;23.028;2023-04-02T05:34:56;92893.94;;;5.82;100.00
11345;BME280;5727;42.600;23.028;2023-04-02T05:37:27;92890.81;;;5.97;100.00
11345;BME280;5727;42.600;23.028;2023-04-02T05:39:57;92894.88;;;6.06;100.00
11345;BME280;5727;42.600;23.028;2023-04-02T05:42:26;92891.16;;;6.16;100.00
11345;BME280;5727;42.600;23.028;2023-04-02T05:45:00;92897.94;;;6.29;100.00
11345;BME280;5727;42.600;23.028;2023-04-02T05:47:31;92897.56;;;6.39;100.00
11345;BME280;5727;42.600;23.028;2023-04-02T05:50:11;92890.25;;;6.32;100.00
11345;BME280;5727;42.600;23.028;2023-04-02T05:52:46;92889.22;;;6.25;100.00
11345;BME280;5727;42.600;23.028;2023-04-02T05:55:37;92896.28;;;6.24;100.00
11345;BME280;5727;42.600;23.028;2023-04-02T05:58:15;92896.66;;;6.35;100.00
11345;BME280;5727;42.600;23.028;2023-04-02T06:00:50;92900.84;;;6.27;100.00
11345;BME280;5727;42.600;23.028;2023-04-02T06:03:23;92896.41;;;6.48;100.00
11345;BME280;5727;42.600;23.028;2023-04-02T06:05:57;92902.34;;;6.70;100.00
11345;BME280;5727;42.600;23.028;2023-04-02T06:08:31;92899.91;;;6.85;100.00
11345;BME280;5727;42.600;23.028;2023-04-02T06:11:05;92902.94;;;6.87;100.00
11345;BME280;5727;42.600;23.028;2023-04-02T06:13:33;92904.72;;;7.07;100.00
11345;BME280;5727;42.600;23.028;2023-04-02T06:16:01;92895.53;;;7.22;100.00
11345;BME280;5727;42.600;23.028;2023-04-02T06:18:29;92892.41;;;7.40;100.00
11345;BME280;5727;42.600;23.028;2023-04-02T06:20:58;92896.44;;;7.62;100.00
11345;BME280;5727;42.600;23.028;2023-04-02T06:23:32;92899.03;;;7.74;100.00
11345;BME280;5727;42.600;23.028;2023-04-02T06:26:04;92893.91;;;7.90;100.00
11345;BME280;5727;42.600;23.028;2023-04-02T06:28:37;92893.47;;;8.00;100.00
11345;BME280;5727;42.600;23.028;2023-04-02T06:31:09;92894.88;;;8.09;100.00
11345;BME280;5727;42.600;23.028;2023-04-02T06:33:39;92895.81;;;8.17;100.00
11345;BME280;5727;42.600;23.028;2023-04-02T06:36:07;92902.81;;;8.25;100.00
11345;BME280;5727;42.600;23.028;2023-04-02T06:38:38;92907.56;;;8.35;100.00
11345;BME280;5727;42.600;23.028;2023-04-02T06:41:11;92905.78;;;8.51;100.00
11345;BME280;5727;42.600;23.028;2023-04-02T06:43:44;92898.66;;;8.64;100.00
11345;BME280;5727;42.600;23.028;2023-04-02T06:46:15;92898.94;;;8.74;100.00
11345;BME280;5727;42.600;23.028;2023-04-02T06:48:45;92907.59;;;8.90;100.00
11345;BME280;5727;42.600;23.028;2023-04-02T06:51:16;92916.13;;;9.03;100.00
11345;BME280;5727;42.600;23.028;2023-04-02T06:53:46;92911.19;;;9.13;100.00
11345;BME280;5727;42.600;23.028;2023-04-02T06:56:20;92916.53;;;9.05;100.00
11345;BME280;5727;42.600;23.028;2023-04-02T06:58:52;92912.03;;;9.17;100.00
11345;BME280;5727;42.600;23.028;2023-04-02T07:01:22;92919.13;;;9.33;100.00
11345;BME280;5727;42.600;23.028;2023-04-02T07:03:49;92911.03;;;9.38;100.00
11345;BME280;5727;42.600;23.028;2023-04-02T07:06:18;92920.88;;;9.29;100.00
11345;BME280;5727;42.600;23.028;2023-04-02T07:08:47;92925.03;;;9.30;100.00
11345;BME280;5727;42.600;23.028;2023-04-02T07:11:14;92914.19;;;9.43;100.00
11345;BME280;5727;42.600;23.028;2023-04-02T07:13:42;92919.66;;;9.54;100.00
11345;BME280;5727;42.600;23.028;2023-04-02T07:16:12;92914.75;;;9.52;100.00
11345;BME280;5727;42.600;23.028;2023-04-02T07:18:40;92919.38;;;9.74;100.00
11345;BME280;5727;42.600;23.028;2023-04-02T07:21:07;92923.53;;;9.91;100.00
11345;BME280;5727;42.600;23.028;2023-04-02T07:23:34;92923.53;;;9.91;100.00
11345;BME280;5727;42.600;23.028;2023-04-02T07:26:04;92925.88;;;10.11;100.00
11345;BME280;5727;42.600;23.028;2023-04-02T07:28:31;92926.78;;;10.19;100.00
11345;BME280;5727;42.600;23.028;2023-04-02T07:30:58;92935.69;;;10.34;100.00
11345;BME280;5727;42.600;23.028;2023-04-02T07:33:26;92941.31;;;10.51;100.00
11345;BME280;5727;42.600;23.028;2023-04-02T07:35:54;92943.19;;;10.51;100.00
11345;BME280;5727;42.600;23.028;2023-04-02T07:38:21;92948.09;;;10.71;100.00
11345;BME280;5727;42.600;23.028;2023-04-02T07:40:48;92941.06;;;10.75;97.82
11345;BME280;5727;42.600;23.028;2023-04-02T07:43:17;92945.91;;;10.92;91.41
11345;BME280;5727;42.600;23.028;2023-04-02T07:45:43;92936.91;;;11.13;91.66
11345;BME280;5727;42.600;23.028;2023-04-02T07:48:12;92939.81;;;11.27;91.95
11345;BME280;5727;42.600;23.028;2023-04-02T07:50:39;92944.34;;;11.30;84.96
11345;BME280;5727;42.600;23.028;2023-04-02T07:53:06;92953.50;;;11.39;82.72
11345;BME280;5727;42.600;23.028;2023-04-02T07:55:33;92941.50;;;11.38;79.63
11345;BME280;5727;42.600;23.028;2023-04-02T07:58:00;92951.41;;;11.26;76.52
11345;BME280;5727;42.600;23.028;2023-04-02T08:00:28;92948.97;;;11.36;77.63
11345;BME280;5727;42.600;23.028;2023-04-02T08:02:55;92950.78;;;11.55;78.34
11345;BME280;5727;42.600;23.028;2023-04-02T08:05:22;92950.22;;;11.65;76.37
11345;BME280;5727;42.600;23.028;2023-04-02T08:07:52;92965.84;;;11.58;75.38
11345;BME280;5727;42.600;23.028;2023-04-02T08:10:20;92954.69;;;11.42;73.19
11345;BME280;5727;42.600;23.028;2023-04-02T08:12:47;92955.53;;;11.27;73.60
11345;BME280;5727;42.600;23.028;2023-04-02T08:15:14;92958.44;;;11.22;74.79
11345;BME280;5727;42.600;23.028;2023-04-02T08:17:42;92954.16;;;11.33;73.96
11345;BME280;5727;42.600;23.028;2023-04-02T08:20:13;92951.09;;;11.50;74.38
11345;BME280;5727;42.600;23.028;2023-04-02T08:22:40;92963.16;;;11.73;73.79
11345;BME280;5727;42.600;23.028;2023-04-02T08:25:08;92962.38;;;11.73;72.09
11345;BME280;5727;42.600;23.028;2023-04-02T08:27:35;92967.81;;;11.64;72.66
11345;BME280;5727;42.600;23.028;2023-04-02T08:30:02;92952.75;;;11.80;73.11
11345;BME280;5727;42.600;23.028;2023-04-02T08:32:29;92968.50;;;11.80;72.55
11345;BME280;5727;42.600;23.028;2023-04-02T08:34:57;92964.22;;;11.95;70.86
11345;BME280;5727;42.600;23.028;2023-04-02T08:37:24;92966.44;;;12.16;70.52
11345;BME280;5727;42.600;23.028;2023-04-02T08:39:51;92961.97;;;12.42;70.44
11345;BME280;5727;42.600;23.028;2023-04-02T08:42:21;92960.63;;;12.55;69.92
11345;BME280;5727;42.600;23.028;2023-04-02T08:44:59;92963.75;;;12.64;69.04
11345;BME280;5727;42.600;23.028;2023-04-02T08:47:31;92961.81;;;12.58;67.79
11345;BME280;5727;42.600;23.028;2023-04-02T08:50:09;92966.97;;;12.80;67.31
11345;BME280;5727;42.600;23.028;2023-04-02T08:52:39;92955.75;;;13.13;67.00
11345;BME280;5727;42.600;23.028;2023-04-02T08:55:17;92949.50;;;13.61;69.61
11345;BME280;5727;42.600;23.028;2023-04-02T08:57:51;92955.94;;;14.08;67.74
11345;BME280;5727;42.600;23.028;2023-04-02T09:00:25;92947.47;;;14.28;64.99
11345;BME280;5727;42.600;23.028;2023-04-02T09:02:55;92944.75;;;14.21;61.13
11345;BME280;5727;42.600;23.028;2023-04-02T09:05:26;92950.91;;;13.92;61.38
11345;BME280;5727;42.600;23.028;2023-04-02T09:07:55;92932.69;;;14.20;62.86
11345;BME280;5727;42.600;23.028;2023-04-02T09:10:30;92940.19;;;14.18;59.72
11345;BME280;5727;42.600;23.028;2023-04-02T09:12:59;92944.91;;;13.95;60.70
11345;BME280;5727;42.600;23.028;2023-04-02T09:15:32;92936.59;;;13.93;61.32
11345;BME280;5727;42.600;23.028;2023-04-02T09:18:05;92936.69;;;14.00;60.68
11345;BME280;5727;42.600;23.028;2023-04-02T09:20:38;92939.25;;;14.40;58.66
11345;BME280;5727;42.600;23.028;2023-04-02T09:23:08;92940.78;;;14.45;57.92
11345;BME280;5727;42.600;23.028;2023-04-02T09:25:43;92935.28;;;14.68;56.96
11345;BME280;5727;42.600;23.028;2023-04-02T09:28:10;92927.06;;;14.83;56.93
11345;BME280;5727;42.600;23.028;2023-04-02T09:30:45;92926.03;;;15.02;58.59
11345;BME280;5727;42.600;23.028;2023-04-02T09:33:19;92935.97;;;14.54;54.71
11345;BME280;5727;42.600;23.028;2023-04-02T09:36:16;92931.66;;;14.28;56.02
11345;BME280;5727;42.600;23.028;2023-04-02T09:38:55;92933.66;;;13.98;57.67
11345;BME280;5727;42.600;23.028;2023-04-02T09:41:26;92921.28;;;14.02;57.81
11345;BME280;5727;42.600;23.028;2023-04-02T09:44:19;92921.09;;;14.28;57.32
11345;BME280;5727;42.600;23.028;2023-04-02T09:46:51;92923.03;;;14.35;56.38
11345;BME280;5727;42.600;23.028;2023-04-02T09:49:21;92909.59;;;14.54;56.54
11345;BME280;5727;42.600;23.028;2023-04-02T09:52:15;92908.44;;;14.48;55.00
11345;BME280;5727;42.600;23.028;2023-04-02T09:54:43;92911.78;;;14.45;56.24
11345;BME280;5727;42.600;23.028;2023-04-02T09:57:18;92908.22;;;14.81;57.68
11345;BME280;5727;42.600;23.028;2023-04-02T10:00:10;92902.69;;;15.11;55.21
11345;BME280;5727;42.600;23.028;2023-04-02T10:02:37;92900.56;;;15.48;55.15
11345;BME280;5727;42.600;23.028;2023-04-02T10:05:05;92897.94;;;15.90;53.49
11345;BME280;5727;42.600;23.028;2023-04-02T10:07:36;92898.69;;;16.05;51.15
11345;BME280;5727;42.600;23.028;2023-04-02T10:10:17;92905.50;;;15.95;50.31
11345;BME280;5727;42.600;23.028;2023-04-02T10:12:48;92907.34;;;15.63;51.68
11345;BME280;5727;42.600;23.028;2023-04-02T10:15:20;92899.06;;;15.65;51.46
11345;BME280;5727;42.600;23.028;2023-04-02T10:17:58;92899.06;;;15.57;53.24
11345;BME280;5727;42.600;23.028;2023-04-02T10:20:28;92902.47;;;15.69;54.16
11345;BME280;5727;42.600;23.028;2023-04-02T10:22:58;92898.31;;;15.85;53.07
11345;BME280;5727;42.600;23.028;2023-04-02T10:25:29;92890.03;;;15.69;54.65
11345;BME280;5727;42.600;23.028;2023-04-02T10:28:04;92888.13;;;16.12;53.68
11345;BME280;5727;42.600;23.028;2023-04-02T10:30:40;92893.75;;;16.53;51.67
11345;BME280;5727;42.600;23.028;2023-04-02T10:33:20;92892.66;;;16.18;49.89
11345;BME280;5727;42.600;23.028;2023-04-02T10:35:56;92896.81;;;15.91;50.78
11345;BME280;5727;42.600;23.028;2023-04-02T10:38:35;92896.81;;;15.63;51.35
11345;BME280;5727;42.600;23.028;2023-04-02T10:41:14;92895.66;;;15.50;52.63
11345;BME280;5727;42.600;23.028;2023-04-02T10:44:18;92886.91;;;15.35;53.67
11345;BME280;5727;42.600;23.028;2023-04-02T10:46:57;92901.31;;;15.55;51.44
11345;BME280;5727;42.600;23.028;2023-04-02T10:49:31;92904.34;;;15.54;51.12
11345;BME280;5727;42.600;23.028;2023-04-02T10:52:05;92900.91;;;15.43;52.83
11345;BME280;5727;42.600;23.028;2023-04-02T10:54:43;92897.19;;;15.76;51.00
11345;BME280;5727;42.600;23.028;2023-04-02T10:57:24;92900.22;;;15.92;51.36
11345;BME280;5727;42.600;23.028;2023-04-02T10:59:55;92894.53;;;16.11;51.71
11345;BME280;5727;42.600;23.028;2023-04-02T11:02:31;92896.81;;;16.23;51.08
11345;BME280;5727;42.600;23.028;2023-04-02T11:05:04;92895.25;;;16.46;51.36
11345;BME280;5727;42.600;23.028;2023-04-02T11:07:45;92891.50;;;16.51;49.90
11345;BME280;5727;42.600;23.028;2023-04-02T11:10:16;92897.53;;;16.55;48.38
11345;BME280;5727;42.600;23.028;2023-04-02T11:12:50;92892.22;;;16.69;48.60
11345;BME280;5727;42.600;23.028;2023-04-02T11:15:19;92898.63;;;16.65;49.23
11345;BME280;5727;42.600;23.028;2023-04-02T11:17:46;92896.00;;;16.54;48.93
11345;BME280;5727;42.600;23.028;2023-04-02T11:23:53;92896.78;;;15.98;49.03
11345;BME280;5727;42.600;23.028;2023-04-02T11:26:32;92885.50;;;15.73;49.53
11345;BME280;5727;42.600;23.028;2023-04-02T11:29:06;92886.22;;;15.70;50.80
11345;BME280;5727;42.600;23.028;2023-04-02T11:31:35;92877.19;;;15.85;53.07
11345;BME280;5727;42.600;23.028;2023-04-02T11:34:01;92877.19;;;15.99;53.43
11345;BME280;5727;42.600;23.028;2023-04-02T11:37:00;92874.16;;;16.18;53.53
11345;BME280;5727;42.600;23.028;2023-04-02T11:39:50;92874.50;;;16.38;49.28
11345;BME280;5727;42.600;23.028;2023-04-02T11:42:28;92874.88;;;16.51;48.82
11345;BME280;5727;42.600;23.028;2023-04-02T11:44:59;92872.22;;;16.43;48.94
11345;BME280;5727;42.600;23.028;2023-04-02T11:47:27;92871.06;;;16.59;53.60
11345;BME280;5727;42.600;23.028;2023-04-02T11:50:04;92869.56;;;16.54;51.62
11345;BME280;5727;42.600;23.028;2023-04-02T11:52:49;92872.56;;;16.70;51.60
11345;BME280;5727;42.600;23.028;2023-04-02T11:55:23;92874.44;;;16.66;50.75
11345;BME280;5727;42.600;23.028;2023-04-02T12:01:32;92871.88;;;16.34;48.91
11345;BME280;5727;42.600;23.028;2023-04-02T12:07:34;92861.50;;;17.00;44.29
11345;BME280;5727;42.600;23.028;2023-04-02T12:10:15;92862.94;;;17.73;42.59
11345;BME280;5727;42.600;23.028;2023-04-02T12:12:43;92853.09;;;19.79;37.26
11345;BME280;5727;42.600;23.028;2023-04-02T12:15:31;92852.00;;;23.30;30.68
11345;BME280;5727;42.600;23.028;2023-04-02T12:18:08;92847.13;;;22.55;30.23
11345;BME280;5727;42.600;23.028;2023-04-02T12:20:37;92855.88;;;21.24;31.23
11345;BME280;5727;42.600;23.028;2023-04-02T12:23:04;92849.28;;;20.30;32.16
11345;BME280;5727;42.600;23.028;2023-04-02T12:25:33;92850.63;;;22.52;30.07
11345;BME280;5727;42.600;23.028;2023-04-02T12:28:06;92840.28;;;22.99;27.88
11345;BME280;5727;42.600;23.028;2023-04-02T12:30:42;92841.72;;;24.98;25.83
11345;BME280;5727;42.600;23.028;2023-04-02T12:33:26;92829.66;;;26.34;24.23
11345;BME280;5727;42.600;23.028;2023-04-02T12:35:56;92832.84;;;24.67;24.68
11345;BME280;5727;42.600;23.028;2023-04-02T12:38:26;92831.78;;;24.17;26.07
11345;BME280;5727;42.600;23.028;2023-04-02T12:40:54;92818.53;;;26.81;23.87
11345;BME280;5727;42.600;23.028;2023-04-02T12:43:23;92818.53;;;27.68;22.47
11345;BME280;5727;42.600;23.028;2023-04-02T12:45:51;92813.16;;;29.10;21.85
11345;BME280;5727;42.600;23.028;2023-04-02T12:48:20;92820.44;;;29.91;20.95
11345;BME280;5727;42.600;23.028;2023-04-02T12:50:47;92815.00;;;30.40;21.03
11345;BME280;5727;42.600;23.028;2023-04-02T12:53:20;92812.72;;;31.45;19.97
11345;BME280;5727;42.600;23.028;2023-04-02T12:55:49;92812.16;;;28.45;20.07
11345;BME280;5727;42.600;23.028;2023-04-02T12:58:31;92826.75;;;23.94;24.33
11345;BME280;5727;42.600;23.028;2023-04-02T13:01:15;92825.19;;;21.35;27.63
11345;BME280;5727;42.600;23.028;2023-04-02T13:03:58;92832.97;;;19.55;30.73
11345;BME280;5727;42.600;23.028;2023-04-02T13:06:25;92827.81;;;19.14;31.76
11345;BME280;5727;42.600;23.028;2023-04-02T13:08:52;92835.63;;;19.25;31.94
11345;BME280;5727;42.600;23.028;2023-04-02T13:11:20;92823.84;;;18.32;33.39
11345;BME280;5727;42.600;23.028;2023-04-02T13:13:48;92815.44;;;18.37;33.71
11345;BME280;5727;42.600;23.028;2023-04-02T13:16:32;92806.56;;;18.54;33.98
11345;BME280;5727;42.600;23.028;2023-04-02T13:19:21;92818.47;;;17.47;35.98
11345;BME280;5727;42.600;23.028;2023-04-02T13:21:49;92811.00;;;18.27;34.57
11345;BME280;5727;42.600;23.028;2023-04-02T13:24:17;92820.88;;;18.94;33.06
11345;BME280;5727;42.600;23.028;2023-04-02T13:26:44;92816.41;;;18.87;33.02
11345;BME280;5727;42.600;23.028;2023-04-02T13:29:20;92809.88;;;19.98;31.90
11345;BME280;5727;42.600;23.028;2023-04-02T13:31:47;92810.22;;;20.86;30.32
11345;BME280;5727;42.600;23.028;2023-04-02T13:34:15;92811.81;;;21.19;29.57
11345;BME280;5727;42.600;23.028;2023-04-02T13:36:43;92807.16;;;20.87;29.76
11345;BME280;5727;42.600;23.028;2023-04-02T13:39:09;92806.34;;;20.51;30.70
11345;BME280;5727;42.600;23.028;2023-04-02T13:41:39;92811.56;;;20.94;29.88
11345;BME280;5727;42.600;23.028;2023-04-02T13:44:16;92799.91;;;21.08;30.25